createdAt,value
2018-11-27T00:02:17.494Z,94955.72
2018-11-27T00:04:47.450Z,94955.75
2018-11-27T00:07:17.469Z,94961.66
2018-11-27T00:09:47.432Z,94971.58
2018-11-27T00:12:17.406Z,94966.86
2018-11-27T00:14:47.255Z,94968.48
2018-11-27T00:17:17.185Z,94970.17
2018-11-27T00:19:47.603Z,94977.47
2018-11-27T00:22:17.484Z,94976.61
2018-11-27T00:24:47.368Z,94971.03
2018-11-27T00:27:17.282Z,94973.62
2018-11-27T00:29:47.265Z,94974.03
2018-11-27T00:32:17.216Z,94980.47
2018-11-27T00:34:47.114Z,94982.22
2018-11-27T00:37:17.045Z,94986.06
2018-11-27T00:39:48.135Z,94983.56
2018-11-27T00:42:18.051Z,94985.27
2018-11-27T00:44:47.966Z,94989.97
2018-11-27T00:47:17.910Z,94992.15
2018-11-27T00:49:47.797Z,94990.09
2018-11-27T00:52:17.659Z,94993.06
2018-11-27T00:54:47.566Z,94996.92
2018-11-27T00:57:17.448Z,94997.42
2018-11-27T00:59:47.457Z,95005.16
2018-11-27T01:02:18.429Z,95009.44
2018-11-27T01:04:48.340Z,95009.47
2018-11-27T01:07:19.030Z,95012.86
2018-11-27T01:09:48.967Z,95015.84
2018-11-27T01:12:18.913Z,95018.86
2018-11-27T01:14:48.814Z,95020.16
2018-11-27T01:17:18.691Z,95014.58
2018-11-27T01:19:48.592Z,95020.98
2018-11-27T01:22:18.520Z,95022.25
2018-11-27T01:24:49.151Z,95024.45
2018-11-27T01:27:19.071Z,95025.77
2018-11-27T01:29:48.951Z,95028.80
2018-11-27T01:32:18.837Z,95031.31
2018-11-27T01:34:49.084Z,95031.34
2018-11-27T01:37:18.980Z,95030.47
2018-11-27T01:39:50.125Z,95035.58
2018-11-27T01:42:21.390Z,95041.13
2018-11-27T01:44:51.271Z,95040.25
2018-11-27T01:47:21.156Z,95040.66
2018-11-27T01:49:51.144Z,95033.82
2018-11-27T01:52:21.459Z,95035.16
2018-11-27T01:54:51.359Z,95036.84
2018-11-27T01:57:21.222Z,95038.97
2018-11-27T01:59:51.118Z,95041.58
2018-11-27T02:02:21.013Z,95043.73
2018-11-27T02:04:50.944Z,95047.18
2018-11-27T02:07:21.095Z,95042.05
2018-11-27T02:09:51.874Z,95042.85
2018-11-27T02:12:21.750Z,95042.84
2018-11-27T02:14:52.436Z,95047.98
2018-11-27T02:17:22.349Z,95048.86
2018-11-27T02:19:52.214Z,95051.41
2018-11-27T02:22:22.101Z,95047.09
2018-11-27T02:24:51.982Z,95052.64
2018-11-27T02:27:21.862Z,95047.05
2018-11-27T02:29:52.570Z,95050.45
2018-11-27T02:32:22.433Z,95050.05
2018-11-27T02:34:53.607Z,95051.81
2018-11-27T02:37:23.529Z,95060.33
2018-11-27T02:39:54.630Z,95056.05
2018-11-27T02:42:24.503Z,95059.89
2018-11-27T02:44:54.391Z,95056.93
2018-11-27T02:47:24.295Z,95063.77
2018-11-27T02:49:55.025Z,95059.95
2018-11-27T02:52:25.157Z,95059.95
2018-11-27T02:54:55.917Z,95058.23
2018-11-27T02:57:25.827Z,95063.38
2018-11-27T02:59:55.865Z,95060.80
2018-11-27T03:02:25.741Z,95068.05
2018-11-27T03:04:55.683Z,95073.71
2018-11-27T03:07:25.573Z,95077.53
2018-11-27T03:09:56.120Z,95078.36
2018-11-27T03:12:26.087Z,95078.79
2018-11-27T03:14:56.101Z,95083.48
2018-11-27T03:17:25.942Z,95080.91
2018-11-27T03:19:55.958Z,95081.33
2018-11-27T03:22:25.916Z,95083.91
2018-11-27T03:24:55.893Z,95083.03
2018-11-27T03:27:27.579Z,95090.36
2018-11-27T03:29:57.549Z,95089.94
2018-11-27T03:32:28.175Z,95102.38
2018-11-27T03:34:58.067Z,95101.53
2018-11-27T03:37:27.961Z,95105.81
2018-11-27T03:39:57.837Z,95107.97
2018-11-27T03:42:27.741Z,95113.09
2018-11-27T03:44:58.157Z,95118.24
2018-11-27T03:47:28.050Z,95115.21
2018-11-27T03:49:59.863Z,95114.84
2018-11-27T03:52:29.801Z,95112.69
2018-11-27T03:54:59.687Z,95122.55
2018-11-27T03:57:29.641Z,95125.09
2018-11-27T03:59:59.512Z,95119.09
2018-11-27T04:02:30.004Z,95121.23
2018-11-27T04:05:00.092Z,95123.35
2018-11-27T04:07:31.209Z,95119.07
2018-11-27T04:10:01.163Z,95125.91
2018-11-27T04:12:31.082Z,95126.37
2018-11-27T04:15:01.043Z,95134.54
2018-11-27T04:17:32.103Z,95139.25
2018-11-27T04:20:02.233Z,95137.50
2018-11-27T04:22:32.492Z,95142.22
2018-11-27T04:25:03.528Z,95139.67
2018-11-27T04:27:34.204Z,95141.78
2018-11-27T04:30:04.190Z,95145.20
2018-11-27T04:32:35.802Z,95145.20
2018-11-27T04:35:06.634Z,95146.50
2018-11-27T04:37:36.568Z,95143.92
2018-11-27T04:40:08.648Z,95150.77
2018-11-27T04:42:38.621Z,95154.65
2018-11-27T04:45:13.751Z,95153.37
2018-11-27T04:47:43.791Z,95154.67
2018-11-27T04:50:14.646Z,95160.23
2018-11-27T04:52:44.650Z,95159.80
2018-11-27T04:55:15.996Z,95163.22
2018-11-27T04:57:46.936Z,95171.36
2018-11-27T05:00:18.655Z,95169.20
2018-11-27T05:02:49.586Z,95170.09
2018-11-27T05:05:20.158Z,95170.06
2018-11-27T05:07:50.476Z,95173.94
2018-11-27T05:10:21.765Z,95176.51
2018-11-27T05:12:53.485Z,95176.92
2018-11-27T05:15:25.801Z,95187.23
2018-11-27T05:17:56.779Z,95191.05
2018-11-27T05:20:26.763Z,95191.51
2018-11-27T05:22:57.232Z,95197.08
2018-11-27T05:25:27.806Z,95199.63
2018-11-27T05:27:58.176Z,95203.94
2018-11-27T05:30:29.069Z,95201.80
2018-11-27T05:32:59.048Z,95203.93
2018-11-27T05:35:30.050Z,95208.20
2018-11-27T05:38:01.512Z,95211.64
2018-11-27T05:40:31.492Z,95213.79
2018-11-27T05:43:04.224Z,95216.77
2018-11-27T05:45:34.094Z,95219.34
2018-11-27T05:48:03.984Z,95216.77
2018-11-27T05:50:34.140Z,95225.77
2018-11-27T05:53:04.045Z,95231.34
2018-11-27T05:55:33.952Z,95238.20
2018-11-27T05:58:04.993Z,95239.49
2018-11-27T06:00:34.882Z,95238.20
2018-11-27T06:03:06.176Z,95239.49
2018-11-27T06:05:36.073Z,95248.49
2018-11-27T06:08:07.350Z,95244.63
2018-11-27T06:10:37.289Z,95246.77
2018-11-27T06:13:07.192Z,95249.74
2018-11-27T06:15:37.148Z,95249.77
2018-11-27T06:18:07.344Z,95253.63
2018-11-27T06:20:38.121Z,95257.91
2018-11-27T06:23:09.032Z,95260.47
2018-11-27T06:25:38.973Z,95263.49
2018-11-27T06:28:08.983Z,95264.75
2018-11-27T06:30:39.006Z,95276.34
2018-11-27T06:33:08.898Z,95275.48
2018-11-27T06:35:40.949Z,95279.32
2018-11-27T06:38:11.264Z,95281.91
2018-11-27T06:40:42.249Z,95279.75
2018-11-27T06:43:12.974Z,95289.58
2018-11-27T06:45:44.561Z,95288.76
2018-11-27T06:48:15.510Z,95291.77
2018-11-27T06:50:46.490Z,95296.48
2018-11-27T06:53:17.509Z,95298.63
2018-11-27T06:55:48.378Z,95305.05
2018-11-27T06:58:19.028Z,95300.34
2018-11-27T07:00:48.957Z,95304.17
2018-11-27T07:03:19.008Z,95313.61
2018-11-27T07:05:48.879Z,95317.91
2018-11-27T07:08:18.761Z,95320.47
2018-11-27T07:10:49.778Z,95323.03
2018-11-27T07:13:23.970Z,95320.48
2018-11-27T07:15:54.105Z,95326.08
2018-11-27T07:18:23.996Z,95330.81
2018-11-27T07:20:53.890Z,95337.20
2018-11-27T07:23:24.509Z,95335.95
2018-11-27T07:25:54.424Z,95342.80
2018-11-27T07:28:24.496Z,95345.38
2018-11-27T07:30:54.979Z,95352.21
2018-11-27T07:33:25.515Z,95362.47
2018-11-27T07:35:55.473Z,95366.77
2018-11-27T07:38:25.367Z,95370.67
2018-11-27T07:40:55.267Z,95375.37
2018-11-27T07:43:26.154Z,95380.11
2018-11-27T07:45:56.201Z,95369.38
2018-11-27T07:48:27.084Z,95374.09
2018-11-27T07:50:57.509Z,95379.27
2018-11-27T07:53:34.233Z,95381.81
2018-11-27T07:56:04.144Z,95381.39
2018-11-27T07:58:34.028Z,95387.83
2018-11-27T08:01:04.557Z,95385.26
2018-11-27T08:03:34.429Z,95389.13
2018-11-27T08:06:04.324Z,95395.10
2018-11-27T08:08:34.858Z,95403.23
2018-11-27T08:11:05.474Z,95401.50
2018-11-27T08:13:35.367Z,95410.54
2018-11-27T08:16:06.212Z,95410.98
2018-11-27T08:18:37.560Z,95408.40
2018-11-27T08:21:07.676Z,95414.41
2018-11-27T08:23:37.637Z,95414.82
2018-11-27T08:26:07.552Z,95416.55
2018-11-27T08:28:37.769Z,95419.10
2018-11-27T08:31:07.932Z,95422.99
2018-11-27T08:33:37.811Z,95427.70
2018-11-27T08:36:08.240Z,95427.67
2018-11-27T08:38:38.092Z,95432.42
2018-11-27T08:41:08.822Z,95435.42
2018-11-27T08:43:38.753Z,95438.02
2018-11-27T08:46:08.631Z,95443.16
2018-11-27T08:48:38.580Z,95445.74
2018-11-27T08:51:08.464Z,95443.60
2018-11-27T08:53:38.986Z,95451.75
2018-11-27T08:56:08.893Z,95456.05
2018-11-27T08:58:39.092Z,95458.18
2018-11-27T09:01:08.961Z,95466.78
2018-11-27T09:03:38.844Z,95463.74
2018-11-27T09:06:08.810Z,95466.77
2018-11-27T09:08:38.676Z,95470.19
2018-11-27T09:11:09.025Z,95477.06
2018-11-27T09:13:38.930Z,95477.08
2018-11-27T09:16:08.831Z,95480.08
2018-11-27T09:18:39.629Z,95480.51
2018-11-27T09:21:09.846Z,95489.50
2018-11-27T09:23:39.760Z,95494.25
2018-11-27T09:26:10.146Z,95492.95
2018-11-27T09:28:40.084Z,95501.98
2018-11-27T09:31:09.959Z,95495.48
2018-11-27T09:33:39.839Z,95502.79
2018-11-27T09:36:09.869Z,95499.42
2018-11-27T09:38:39.890Z,95505.42
2018-11-27T09:41:10.637Z,95506.33
2018-11-27T09:43:39.671Z,95515.31
2018-11-27T09:46:09.577Z,95512.33
2018-11-27T09:48:39.496Z,95515.30
2018-11-27T09:51:10.013Z,95514.91
2018-11-27T09:53:39.879Z,95516.60
2018-11-27T09:56:10.415Z,95513.16
2018-11-27T09:58:40.277Z,95517.91
2018-11-27T10:01:10.172Z,95520.41
2018-11-27T10:03:40.314Z,95524.30
2018-11-27T10:06:10.174Z,95528.14
2018-11-27T10:08:40.067Z,95531.14
2018-11-27T10:11:09.977Z,95531.61
2018-11-27T10:13:39.849Z,95531.61
2018-11-27T10:16:09.730Z,95530.33
2018-11-27T10:18:39.655Z,95533.80
2018-11-27T10:21:09.708Z,95529.49
2018-11-27T10:23:39.823Z,95534.20
2018-11-27T10:26:09.690Z,95537.20
2018-11-27T10:28:39.584Z,95528.60
2018-11-27T10:31:09.468Z,95520.92
2018-11-27T10:33:39.380Z,95522.20
2018-11-27T10:36:09.535Z,95526.05
2018-11-27T10:38:39.441Z,95521.75
2018-11-27T10:41:09.946Z,95521.30
2018-11-27T10:43:39.824Z,95527.77
2018-11-27T10:46:09.835Z,95525.22
2018-11-27T10:48:39.573Z,95527.80
2018-11-27T10:51:09.455Z,95524.79
2018-11-27T10:53:39.394Z,95527.77
2018-11-27T10:56:09.257Z,95532.51
2018-11-27T10:58:39.382Z,95526.94
2018-11-27T11:01:13.407Z,95530.36
2018-11-27T11:03:43.294Z,95533.80
2018-11-27T11:06:13.342Z,95535.95
2018-11-27T11:08:43.211Z,95535.95
2018-11-27T11:11:13.081Z,95543.23
2018-11-27T11:13:42.959Z,95540.67
2018-11-27T11:16:13.110Z,95541.53
2018-11-27T11:18:43.860Z,95542.80
2018-11-27T11:21:14.098Z,95547.95
2018-11-27T11:23:44.297Z,95547.50
2018-11-27T11:26:14.225Z,95547.96
2018-11-27T11:28:44.105Z,95544.91
2018-11-27T11:31:15.183Z,95549.64
2018-11-27T11:33:45.181Z,95555.17
2018-11-27T11:36:16.161Z,95555.60
2018-11-27T11:38:46.038Z,95553.90
2018-11-27T11:41:15.916Z,95558.19
2018-11-27T11:43:45.806Z,95560.36
2018-11-27T11:46:15.995Z,95562.91
2018-11-27T11:48:46.687Z,95563.78
2018-11-27T11:51:16.544Z,95565.95
2018-11-27T11:53:46.439Z,95566.80
2018-11-27T11:56:16.387Z,95562.92
2018-11-27T11:58:47.493Z,95560.33
2018-11-27T12:01:17.460Z,95563.36
2018-11-27T12:03:47.457Z,95565.93
2018-11-27T12:06:17.338Z,95566.83
2018-11-27T12:08:47.291Z,95567.27
2018-11-27T12:11:17.203Z,95576.31
2018-11-27T12:13:48.085Z,95574.16
2018-11-27T12:16:18.722Z,95577.18
2018-11-27T12:18:48.765Z,95577.19
2018-11-27T12:21:19.007Z,95580.19
2018-11-27T12:23:49.531Z,95584.48
2018-11-27T12:26:19.418Z,95576.75
2018-11-27T12:28:50.462Z,95587.48
2018-11-27T12:31:20.601Z,95588.78
2018-11-27T12:33:51.093Z,95585.76
2018-11-27T12:36:22.290Z,95584.48
2018-11-27T12:38:52.136Z,95588.78
2018-11-27T12:41:22.013Z,95590.05
2018-11-27T12:43:51.912Z,95592.61
2018-11-27T12:46:21.795Z,95588.74
2018-11-27T12:48:51.938Z,95589.59
2018-11-27T12:51:22.513Z,95593.47
2018-11-27T12:53:52.933Z,95598.22
2018-11-27T12:56:22.849Z,95602.08
2018-11-27T12:58:53.323Z,95599.95
2018-11-27T13:01:23.170Z,95606.77
2018-11-27T13:03:53.075Z,95612.36
2018-11-27T13:06:27.707Z,95606.78
2018-11-27T13:08:53.472Z,95611.52
2018-11-27T13:11:23.436Z,95618.81
2018-11-27T13:13:53.367Z,95611.94
2018-11-27T13:16:23.361Z,95617.94
2018-11-27T13:18:53.595Z,95617.55
2018-11-27T13:21:23.864Z,95625.28
2018-11-27T13:23:53.722Z,95626.55
2018-11-27T13:26:24.367Z,95629.55
2018-11-27T13:28:54.897Z,95632.13
2018-11-27T13:31:27.126Z,95641.59
2018-11-27T13:34:02.605Z,95640.72
2018-11-27T13:36:32.499Z,95648.86
2018-11-27T13:39:13.741Z,95653.16
2018-11-27T13:41:44.826Z,95657.03
2018-11-27T13:44:14.895Z,95656.17
2018-11-27T13:46:45.116Z,95654.46
2018-11-27T13:49:14.963Z,95654.02
2018-11-27T13:51:45.854Z,95648.44
2018-11-27T13:54:15.811Z,95645.81
2018-11-27T13:56:46.017Z,95644.46
2018-11-27T13:59:15.873Z,95647.95
2018-11-27T14:01:46.385Z,95647.92
2018-11-27T14:04:15.669Z,95648.77
2018-11-27T14:06:45.583Z,95649.66
2018-11-27T14:09:15.457Z,95654.83
2018-11-27T14:11:45.347Z,95664.68
2018-11-27T14:14:15.599Z,95665.52
2018-11-27T14:16:45.631Z,95665.95
2018-11-27T14:19:15.805Z,95672.89
2018-11-27T14:21:45.833Z,95673.34
2018-11-27T14:24:15.708Z,95680.21
2018-11-27T14:26:45.583Z,95686.23
2018-11-27T14:29:15.456Z,95685.33
2018-11-27T14:31:46.156Z,95681.36
2018-11-27T14:34:16.013Z,95686.59
2018-11-27T14:36:46.150Z,95687.00
2018-11-27T14:39:15.905Z,95690.47
2018-11-27T14:41:46.869Z,95693.06
2018-11-27T14:44:16.968Z,95690.91
2018-11-27T14:46:46.800Z,95698.22
2018-11-27T14:49:16.703Z,95696.52
2018-11-27T14:51:46.577Z,95694.83
2018-11-27T14:54:16.468Z,95696.11
2018-11-27T14:56:47.818Z,95699.12
2018-11-27T14:59:17.705Z,95708.58
2018-11-27T15:01:47.547Z,95715.02
2018-11-27T15:04:17.564Z,95714.59
2018-11-27T15:06:47.471Z,95719.31
2018-11-27T15:09:17.485Z,95723.16
2018-11-27T15:11:47.389Z,95726.61
2018-11-27T15:14:17.292Z,95721.44
2018-11-27T15:16:48.255Z,95733.84
2018-11-27T15:19:18.174Z,95735.50
2018-11-27T15:21:48.062Z,95739.34
2018-11-27T15:24:17.979Z,95748.77
2018-11-27T15:26:47.841Z,95750.48
2018-11-27T15:29:17.657Z,95748.73
2018-11-27T15:31:47.536Z,95747.83
2018-11-27T15:34:17.378Z,95755.63
2018-11-27T15:36:47.250Z,95754.75
2018-11-27T15:39:17.242Z,95755.20
2018-11-27T15:41:47.318Z,95755.25
2018-11-27T15:44:18.078Z,95762.12
2018-11-27T15:46:48.128Z,95764.22
2018-11-27T15:49:17.950Z,95767.66
2018-11-27T15:51:48.102Z,95767.25
2018-11-27T15:54:17.970Z,95767.28
2018-11-27T15:56:47.790Z,95777.56
2018-11-27T15:59:17.694Z,95776.70
2018-11-27T16:01:48.038Z,95779.72
2018-11-27T16:04:18.402Z,95779.32
2018-11-27T16:06:48.246Z,95787.52
2018-11-27T16:09:18.138Z,95788.84
2018-11-27T16:11:48.024Z,95792.70
2018-11-27T16:14:18.645Z,95797.85
2018-11-27T16:16:49.175Z,95798.69
2018-11-27T16:19:19.141Z,95803.42
2018-11-27T16:21:48.996Z,95807.27
2018-11-27T16:24:25.628Z,95805.98
2018-11-27T16:26:55.732Z,95803.38
2018-11-27T16:29:25.746Z,95808.55
2018-11-27T16:31:55.887Z,95819.61
2018-11-27T16:34:26.791Z,95821.41
2018-11-27T16:36:56.742Z,95822.30
2018-11-27T16:39:27.003Z,95817.06
2018-11-27T16:41:57.302Z,95823.48
2018-11-27T16:44:27.370Z,95820.12
2018-11-27T16:46:57.388Z,95824.45
2018-11-27T16:49:27.351Z,95825.31
2018-11-27T16:51:57.390Z,95828.75
2018-11-27T16:54:27.389Z,95830.06
2018-11-27T16:56:57.515Z,95832.61
2018-11-27T16:59:27.483Z,95831.34
2018-11-27T17:01:57.580Z,95832.66
2018-11-27T17:04:27.526Z,95830.95
2018-11-27T17:06:57.430Z,95834.36
2018-11-27T17:09:27.805Z,95831.37
2018-11-27T17:11:57.793Z,95839.07
2018-11-27T17:14:27.704Z,95837.31
2018-11-27T17:16:57.608Z,95842.91
2018-11-27T17:19:27.586Z,95844.19
2018-11-27T17:21:57.573Z,95845.88
2018-11-27T17:24:27.551Z,95847.17
2018-11-27T17:26:58.794Z,95844.59
2018-11-27T17:29:28.815Z,95855.20
2018-11-27T17:31:58.808Z,95854.78
2018-11-27T17:34:28.783Z,95855.63
2018-11-27T17:36:58.796Z,95860.74
2018-11-27T17:39:28.707Z,95856.09
2018-11-27T17:41:58.831Z,95863.82
2018-11-27T17:44:28.870Z,95862.09
2018-11-27T17:46:58.802Z,95870.26
2018-11-27T17:49:28.730Z,95874.08
2018-11-27T17:51:59.098Z,95875.41
2018-11-27T17:54:30.078Z,95880.13
2018-11-27T17:57:00.042Z,95881.80
2018-11-27T17:59:29.923Z,95878.72
2018-11-27T18:02:00.476Z,95881.27
2018-11-27T18:04:31.161Z,95871.41
2018-11-27T18:07:01.154Z,95881.33
2018-11-27T18:09:31.161Z,95889.52
2018-11-27T18:12:01.148Z,95895.02
2018-11-27T18:14:31.082Z,95895.55
2018-11-27T18:17:01.752Z,95895.61
2018-11-27T18:19:31.747Z,95900.84
2018-11-27T18:22:01.692Z,95899.12
2018-11-27T18:24:31.791Z,95902.59
2018-11-27T18:27:02.730Z,95905.20
2018-11-27T18:29:32.631Z,95904.29
2018-11-27T18:32:02.664Z,95909.05
2018-11-27T18:34:32.626Z,95919.38
2018-11-27T18:37:02.590Z,95919.81
2018-11-27T18:39:32.538Z,95918.55
2018-11-27T18:42:02.656Z,95921.98
2018-11-27T18:44:32.644Z,95916.83
2018-11-27T18:47:02.560Z,95921.58
2018-11-27T18:49:32.465Z,95922.00
2018-11-27T18:52:02.355Z,95928.89
2018-11-27T18:54:32.279Z,95931.48
2018-11-27T18:57:02.207Z,95925.89
2018-11-27T18:59:32.734Z,95921.17
2018-11-27T19:02:02.787Z,95922.89
2018-11-27T19:04:33.447Z,95924.16
2018-11-27T19:07:03.426Z,95924.61
2018-11-27T19:09:33.365Z,95927.94
2018-11-27T19:12:03.366Z,95920.70
2018-11-27T19:14:33.295Z,95924.11
2018-11-27T19:17:03.430Z,95923.73
2018-11-27T19:19:33.491Z,95926.31
2018-11-27T19:22:03.567Z,95919.39
2018-11-27T19:24:33.623Z,95923.28
2018-11-27T19:27:04.604Z,95920.70
2018-11-27T19:29:34.981Z,95921.12
2018-11-27T19:32:05.379Z,95929.27
2018-11-27T19:34:38.207Z,95940.00
2018-11-27T19:37:08.351Z,95948.95
2018-11-27T19:39:38.384Z,95947.69
2018-11-27T19:42:08.457Z,95942.93
2018-11-27T19:44:39.339Z,95947.23
2018-11-27T19:47:09.478Z,95951.48
2018-11-27T19:49:39.600Z,95955.78
2018-11-27T19:52:10.090Z,95960.86
2018-11-27T19:54:40.248Z,95961.25
2018-11-27T19:57:11.407Z,95964.23
2018-11-27T19:59:42.519Z,95961.12
2018-11-27T20:02:12.745Z,95971.97
2018-11-27T20:04:43.109Z,95974.59
2018-11-27T20:07:13.860Z,95976.75
2018-11-27T20:12:32.010Z,95976.86
2018-11-27T20:15:02.169Z,95982.03
2018-11-27T20:17:32.340Z,95976.87
2018-11-27T20:20:02.817Z,95984.63
2018-11-27T20:22:33.080Z,95983.34
2018-11-27T20:25:03.482Z,95979.92
2018-11-27T20:27:33.650Z,95987.65
2018-11-27T20:30:08.174Z,95990.20
2018-11-27T20:32:38.357Z,95986.70
2018-11-27T20:35:10.302Z,95994.48
2018-11-27T20:37:41.459Z,95995.33
2018-11-27T20:40:13.529Z,95993.23
2018-11-27T20:42:44.088Z,95994.09
2018-11-27T20:45:19.303Z,95991.52
2018-11-27T20:47:47.968Z,96002.67
2018-11-27T20:50:19.248Z,95994.89
2018-11-27T20:52:49.305Z,95999.94
2018-11-27T20:55:19.644Z,96002.42
2018-11-27T20:57:56.764Z,96007.20
2018-11-27T21:00:28.873Z,96005.03
2018-11-27T21:03:00.257Z,96007.66
2018-11-27T21:05:30.994Z,96005.06
2018-11-27T21:08:01.099Z,96009.41
2018-11-27T21:10:31.165Z,96006.78
2018-11-27T21:13:01.253Z,96011.05
2018-11-27T21:15:31.351Z,96013.63
2018-11-27T21:18:01.499Z,96016.63
2018-11-27T21:20:31.499Z,96019.63
2018-11-27T21:23:02.182Z,96020.02
2018-11-27T21:25:32.880Z,96015.63
2018-11-27T21:28:09.725Z,96021.22
2018-11-27T21:30:39.963Z,96022.13
2018-11-27T21:33:10.045Z,96023.44
2018-11-27T21:35:40.087Z,96018.70
2018-11-27T21:38:10.142Z,96025.58
2018-11-27T21:40:40.367Z,96031.95
2018-11-27T21:43:10.401Z,96024.20
2018-11-27T21:45:42.124Z,96025.84
2018-11-27T21:54:01.632Z,96026.36
2018-11-27T21:56:31.592Z,96032.80
2018-11-27T21:59:01.717Z,96029.76
2018-11-27T22:01:32.569Z,96031.39
2018-11-27T22:04:09.605Z,96032.21
2018-11-27T22:06:40.032Z,96035.19
2018-11-27T22:09:10.090Z,96035.50
2018-11-27T22:11:40.074Z,96035.94
2018-11-27T22:14:10.450Z,96038.45
2018-11-27T22:16:40.730Z,96037.94
2018-11-27T22:19:10.734Z,96040.84
2018-11-27T22:21:40.725Z,96044.59
2018-11-27T22:24:11.036Z,96054.08
2018-11-27T22:26:41.354Z,96047.49
2018-11-27T22:29:11.356Z,96047.13
2018-11-27T22:31:41.341Z,96049.70
2018-11-27T22:34:11.409Z,96053.08
2018-11-27T22:36:41.417Z,96046.98
2018-11-27T22:39:11.672Z,96048.30
2018-11-27T22:41:41.866Z,96050.02
2018-11-27T22:44:11.922Z,96056.45
2018-11-27T22:46:41.987Z,96055.05
2018-11-27T22:49:12.064Z,96055.38
2018-11-27T22:51:42.199Z,96054.53
2018-11-27T22:54:12.859Z,96066.86
2018-11-27T22:56:42.841Z,96066.82
2018-11-27T22:59:13.333Z,96068.11
2018-11-27T23:01:46.988Z,96074.58
2018-11-27T23:04:27.803Z,96061.67
2018-11-27T23:06:57.846Z,96063.41
2018-11-27T23:09:27.770Z,96057.81
2018-11-27T23:11:57.614Z,96053.87
2018-11-27T23:14:27.621Z,96056.89
2018-11-27T23:16:57.572Z,96051.58
2018-11-27T23:19:29.420Z,96054.55
2018-11-27T23:21:59.392Z,96055.35
2018-11-27T23:24:29.311Z,96057.39
2018-11-27T23:26:59.223Z,96058.77
2018-11-27T23:29:29.150Z,96059.69
2018-11-27T23:32:00.041Z,96053.27
2018-11-27T23:34:30.001Z,96054.91
2018-11-27T23:37:00.956Z,96048.48
2018-11-27T23:39:30.828Z,96050.61
2018-11-27T23:42:00.885Z,96048.92
2018-11-27T23:44:31.029Z,96048.88
2018-11-27T23:47:00.939Z,96050.96
2018-11-27T23:49:31.267Z,96053.09
2018-11-27T23:52:01.504Z,96053.48
2018-11-27T23:54:31.421Z,96057.29
2018-11-27T23:57:01.303Z,96056.41
2018-11-27T23:59:31.848Z,96052.11
